sensor_id;sensor_type;location;lat;lon;timestamp;P1;durP1;ratioP1;P2;durP2;ratioP2
24381;SDS011;12502;50.678;7.172;2022-07-21T00:03:17;21.77;;;10.15;;
24381;SDS011;12502;50.678;7.172;2022-07-21T00:08:19;15.27;;;9.60;;
24381;SDS011;12502;50.678;7.172;2022-07-21T00:13:20;11.15;;;7.82;;
24381;SDS011;12502;50.678;7.172;2022-07-21T00:18:22;9.38;;;6.90;;
24381;SDS011;12502;50.678;7.172;2022-07-21T00:23:24;10.48;;;7.15;;
24381;SDS011;12502;50.678;7.172;2022-07-21T00:28:27;10.50;;;7.13;;
24381;SDS011;12502;50.678;7.172;2022-07-21T00:33:28;9.48;;;6.80;;
24381;SDS011;12502;50.678;7.172;2022-07-21T00:38:30;9.52;;;7.32;;
24381;SDS011;12502;50.678;7.172;2022-07-21T00:43:32;8.80;;;7.90;;
24381;SDS011;12502;50.678;7.172;2022-07-21T00:48:34;12.63;;;9.27;;
24381;SDS011;12502;50.678;7.172;2022-07-21T00:53:36;11.98;;;7.65;;
24381;SDS011;12502;50.678;7.172;2022-07-21T00:58:39;10.15;;;6.60;;
24381;SDS011;12502;50.678;7.172;2022-07-21T01:03:41;8.75;;;7.10;;
24381;SDS011;12502;50.678;7.172;2022-07-21T01:08:43;12.50;;;8.32;;
24381;SDS011;12502;50.678;7.172;2022-07-21T01:13:45;11.05;;;8.82;;
24381;SDS011;12502;50.678;7.172;2022-07-21T01:18:47;12.07;;;8.40;;
24381;SDS011;12502;50.678;7.172;2022-07-21T01:23:50;13.80;;;9.63;;
24381;SDS011;12502;50.678;7.172;2022-07-21T01:28:52;9.90;;;7.50;;
24381;SDS011;12502;50.678;7.172;2022-07-21T01:33:55;8.82;;;7.90;;
24381;SDS011;12502;50.678;7.172;2022-07-21T01:38:56;12.52;;;10.00;;
24381;SDS011;12502;50.678;7.172;2022-07-21T01:44:17;11.82;;;9.15;;
24381;SDS011;12502;50.678;7.172;2022-07-21T01:49:19;9.30;;;7.78;;
24381;SDS011;12502;50.678;7.172;2022-07-21T01:54:22;10.57;;;8.32;;
24381;SDS011;12502;50.678;7.172;2022-07-21T01:59:24;9.23;;;7.63;;
24381;SDS011;12502;50.678;7.172;2022-07-21T02:04:26;7.97;;;7.22;;
24381;SDS011;12502;50.678;7.172;2022-07-21T02:09:29;9.95;;;8.30;;
24381;SDS011;12502;50.678;7.172;2022-07-21T02:14:30;14.95;;;8.13;;
24381;SDS011;12502;50.678;7.172;2022-07-21T02:19:32;8.55;;;7.75;;
24381;SDS011;12502;50.678;7.172;2022-07-21T02:24:34;10.85;;;7.78;;
24381;SDS011;12502;50.678;7.172;2022-07-21T02:29:36;13.35;;;8.57;;
24381;SDS011;12502;50.678;7.172;2022-07-21T02:34:38;10.13;;;8.18;;
24381;SDS011;12502;50.678;7.172;2022-07-21T02:39:39;12.52;;;9.02;;
24381;SDS011;12502;50.678;7.172;2022-07-21T02:44:41;10.65;;;9.00;;
24381;SDS011;12502;50.678;7.172;2022-07-21T02:49:43;10.73;;;8.77;;
24381;SDS011;12502;50.678;7.172;2022-07-21T02:54:46;12.63;;;9.70;;
24381;SDS011;12502;50.678;7.172;2022-07-21T02:59:47;16.33;;;11.35;;
24381;SDS011;12502;50.678;7.172;2022-07-21T03:04:49;13.57;;;10.65;;
24381;SDS011;12502;50.678;7.172;2022-07-21T03:09:51;11.77;;;8.13;;
24381;SDS011;12502;50.678;7.172;2022-07-21T03:14:53;12.27;;;9.48;;
24381;SDS011;12502;50.678;7.172;2022-07-21T03:19:54;13.88;;;10.60;;
24381;SDS011;12502;50.678;7.172;2022-07-21T03:24:56;9.43;;;7.85;;
24381;SDS011;12502;50.678;7.172;2022-07-21T03:29:58;12.02;;;8.27;;
24381;SDS011;12502;50.678;7.172;2022-07-21T03:35:00;10.45;;;8.27;;
24381;SDS011;12502;50.678;7.172;2022-07-21T03:40:02;13.13;;;9.70;;
24381;SDS011;12502;50.678;7.172;2022-07-21T03:45:04;11.90;;;9.55;;
24381;SDS011;12502;50.678;7.172;2022-07-21T03:50:07;11.15;;;8.88;;
24381;SDS011;12502;50.678;7.172;2022-07-21T03:55:09;10.32;;;8.15;;
24381;SDS011;12502;50.678;7.172;2022-07-21T04:00:23;12.85;;;9.45;;
24381;SDS011;12502;50.678;7.172;2022-07-21T04:05:25;16.45;;;11.25;;
24381;SDS011;12502;50.678;7.172;2022-07-21T04:10:28;11.20;;;9.68;;
24381;SDS011;12502;50.678;7.172;2022-07-21T04:15:32;11.40;;;9.55;;
24381;SDS011;12502;50.678;7.172;2022-07-21T04:20:34;15.43;;;10.02;;
24381;SDS011;12502;50.678;7.172;2022-07-21T04:25:37;16.27;;;11.60;;
24381;SDS011;12502;50.678;7.172;2022-07-21T04:30:40;13.23;;;11.25;;
24381;SDS011;12502;50.678;7.172;2022-07-21T04:35:41;13.82;;;9.55;;
24381;SDS011;12502;50.678;7.172;2022-07-21T04:40:43;13.00;;;11.27;;
24381;SDS011;12502;50.678;7.172;2022-07-21T04:45:45;12.68;;;10.93;;
24381;SDS011;12502;50.678;7.172;2022-07-21T04:50:47;15.07;;;11.60;;
24381;SDS011;12502;50.678;7.172;2022-07-21T04:55:49;20.50;;;14.90;;
24381;SDS011;12502;50.678;7.172;2022-07-21T05:00:51;18.60;;;13.98;;
24381;SDS011;12502;50.678;7.172;2022-07-21T05:05:52;18.50;;;13.98;;
24381;SDS011;12502;50.678;7.172;2022-07-21T05:10:54;18.85;;;13.75;;
24381;SDS011;12502;50.678;7.172;2022-07-21T05:15:56;19.73;;;16.33;;
24381;SDS011;12502;50.678;7.172;2022-07-21T05:20:58;20.92;;;16.65;;
24381;SDS011;12502;50.678;7.172;2022-07-21T05:25:59;20.55;;;15.13;;
24381;SDS011;12502;50.678;7.172;2022-07-21T05:31:03;22.73;;;14.82;;
24381;SDS011;12502;50.678;7.172;2022-07-21T05:36:05;19.92;;;16.23;;
24381;SDS011;12502;50.678;7.172;2022-07-21T05:41:07;24.23;;;17.05;;
24381;SDS011;12502;50.678;7.172;2022-07-21T05:46:09;22.00;;;18.27;;
24381;SDS011;12502;50.678;7.172;2022-07-21T05:51:11;17.75;;;14.65;;
24381;SDS011;12502;50.678;7.172;2022-07-21T05:56:18;23.50;;;16.98;;
24381;SDS011;12502;50.678;7.172;2022-07-21T06:01:20;18.73;;;14.48;;
24381;SDS011;12502;50.678;7.172;2022-07-21T06:06:22;22.77;;;15.98;;
24381;SDS011;12502;50.678;7.172;2022-07-21T06:11:24;16.55;;;13.40;;
24381;SDS011;12502;50.678;7.172;2022-07-21T06:16:26;19.02;;;14.98;;
24381;SDS011;12502;50.678;7.172;2022-07-21T06:21:27;14.43;;;12.02;;
24381;SDS011;12502;50.678;7.172;2022-07-21T06:26:35;22.13;;;12.48;;
24381;SDS011;12502;50.678;7.172;2022-07-21T06:31:36;16.30;;;12.75;;
24381;SDS011;12502;50.678;7.172;2022-07-21T06:36:38;17.48;;;11.30;;
24381;SDS011;12502;50.678;7.172;2022-07-21T06:41:40;10.60;;;7.20;;
24381;SDS011;12502;50.678;7.172;2022-07-21T06:46:45;8.68;;;6.90;;
24381;SDS011;12502;50.678;7.172;2022-07-21T06:51:50;9.07;;;7.18;;
24381;SDS011;12502;50.678;7.172;2022-07-21T06:56:52;14.07;;;6.30;;
24381;SDS011;12502;50.678;7.172;2022-07-21T07:01:54;10.68;;;8.32;;
24381;SDS011;12502;50.678;7.172;2022-07-21T07:06:56;9.77;;;8.02;;
24381;SDS011;12502;50.678;7.172;2022-07-21T07:11:58;9.50;;;7.55;;
24381;SDS011;12502;50.678;7.172;2022-07-21T07:17:24;10.10;;;8.48;;
24381;SDS011;12502;50.678;7.172;2022-07-21T07:22:26;9.65;;;7.93;;
24381;SDS011;12502;50.678;7.172;2022-07-21T07:27:28;10.88;;;7.78;;
24381;SDS011;12502;50.678;7.172;2022-07-21T07:32:34;14.30;;;9.55;;
24381;SDS011;12502;50.678;7.172;2022-07-21T07:37:36;14.70;;;10.65;;
24381;SDS011;12502;50.678;7.172;2022-07-21T07:42:39;11.50;;;10.00;;
24381;SDS011;12502;50.678;7.172;2022-07-21T07:47:41;11.75;;;10.55;;
24381;SDS011;12502;50.678;7.172;2022-07-21T07:52:44;12.32;;;10.82;;
24381;SDS011;12502;50.678;7.172;2022-07-21T07:57:46;11.88;;;10.50;;
24381;SDS011;12502;50.678;7.172;2022-07-21T08:02:48;12.52;;;10.20;;
24381;SDS011;12502;50.678;7.172;2022-07-21T08:07:50;12.68;;;10.50;;
24381;SDS011;12502;50.678;7.172;2022-07-21T08:12:52;12.10;;;9.52;;
24381;SDS011;12502;50.678;7.172;2022-07-21T08:17:54;10.13;;;8.88;;
24381;SDS011;12502;50.678;7.172;2022-07-21T08:22:55;13.05;;;8.23;;
24381;SDS011;12502;50.678;7.172;2022-07-21T08:27:57;10.48;;;8.60;;
24381;SDS011;12502;50.678;7.172;2022-07-21T08:32:59;10.43;;;8.27;;
24381;SDS011;12502;50.678;7.172;2022-07-21T08:38:03;8.80;;;6.90;;
24381;SDS011;12502;50.678;7.172;2022-07-21T08:43:06;8.15;;;7.22;;
24381;SDS011;12502;50.678;7.172;2022-07-21T08:48:10;5.95;;;5.20;;
24381;SDS011;12502;50.678;7.172;2022-07-21T08:53:12;9.57;;;5.53;;
24381;SDS011;12502;50.678;7.172;2022-07-21T08:58:14;10.30;;;4.95;;
24381;SDS011;12502;50.678;7.172;2022-07-21T09:03:23;6.32;;;4.72;;
24381;SDS011;12502;50.678;7.172;2022-07-21T09:08:29;5.07;;;4.60;;
24381;SDS011;12502;50.678;7.172;2022-07-21T09:13:41;5.43;;;4.70;;
24381;SDS011;12502;50.678;7.172;2022-07-21T09:18:49;9.13;;;5.07;;
24381;SDS011;12502;50.678;7.172;2022-07-21T09:23:53;6.10;;;4.95;;
24381;SDS011;12502;50.678;7.172;2022-07-21T09:29:12;5.32;;;4.25;;
24381;SDS011;12502;50.678;7.172;2022-07-21T09:34:14;5.18;;;4.68;;
24381;SDS011;12502;50.678;7.172;2022-07-21T09:39:16;5.68;;;4.82;;
24381;SDS011;12502;50.678;7.172;2022-07-21T09:44:29;10.30;;;4.85;;
24381;SDS011;12502;50.678;7.172;2022-07-21T09:49:36;7.38;;;4.93;;
24381;SDS011;12502;50.678;7.172;2022-07-21T09:55:00;9.18;;;4.80;;
24381;SDS011;12502;50.678;7.172;2022-07-21T10:00:04;5.10;;;4.47;;
24381;SDS011;12502;50.678;7.172;2022-07-21T10:05:20;5.72;;;5.22;;
24381;SDS011;12502;50.678;7.172;2022-07-21T10:10:31;6.25;;;4.97;;
24381;SDS011;12502;50.678;7.172;2022-07-21T10:15:53;6.45;;;4.93;;
24381;SDS011;12502;50.678;7.172;2022-07-21T10:20:57;7.03;;;4.68;;
24381;SDS011;12502;50.678;7.172;2022-07-21T10:26:05;6.13;;;4.50;;
24381;SDS011;12502;50.678;7.172;2022-07-21T10:31:21;6.38;;;4.65;;
24381;SDS011;12502;50.678;7.172;2022-07-21T10:41:38;8.25;;;5.20;;
24381;SDS011;12502;50.678;7.172;2022-07-21T10:46:41;7.30;;;5.07;;
24381;SDS011;12502;50.678;7.172;2022-07-21T10:51:43;6.30;;;4.70;;
24381;SDS011;12502;50.678;7.172;2022-07-21T10:56:47;5.32;;;4.82;;
24381;SDS011;12502;50.678;7.172;2022-07-21T11:02:27;4.88;;;4.38;;
24381;SDS011;12502;50.678;7.172;2022-07-21T11:13:06;5.07;;;4.20;;
24381;SDS011;12502;50.678;7.172;2022-07-21T11:18:16;5.90;;;4.40;;
24381;SDS011;12502;50.678;7.172;2022-07-21T11:23:19;7.32;;;5.25;;
24381;SDS011;12502;50.678;7.172;2022-07-21T11:28:20;7.18;;;5.00;;
24381;SDS011;12502;50.678;7.172;2022-07-21T11:33:22;7.60;;;5.20;;
24381;SDS011;12502;50.678;7.172;2022-07-21T11:38:24;8.55;;;5.03;;
24381;SDS011;12502;50.678;7.172;2022-07-21T11:43:39;7.03;;;4.70;;
24381;SDS011;12502;50.678;7.172;2022-07-21T11:48:41;8.00;;;4.88;;
24381;SDS011;12502;50.678;7.172;2022-07-21T11:53:44;5.10;;;4.60;;
24381;SDS011;12502;50.678;7.172;2022-07-21T11:58:47;7.85;;;5.07;;
24381;SDS011;12502;50.678;7.172;2022-07-21T12:03:53;6.32;;;5.10;;
24381;SDS011;12502;50.678;7.172;2022-07-21T12:08:56;8.77;;;5.93;;
24381;SDS011;12502;50.678;7.172;2022-07-21T12:13:58;7.07;;;6.00;;
24381;SDS011;12502;50.678;7.172;2022-07-21T12:19:21;8.48;;;6.43;;
24381;SDS011;12502;50.678;7.172;2022-07-21T12:24:23;9.45;;;7.38;;
24381;SDS011;12502;50.678;7.172;2022-07-21T12:29:56;7.85;;;6.53;;
24381;SDS011;12502;50.678;7.172;2022-07-21T12:34:58;9.75;;;7.22;;
24381;SDS011;12502;50.678;7.172;2022-07-21T12:40:19;8.35;;;7.13;;
24381;SDS011;12502;50.678;7.172;2022-07-21T12:45:22;11.48;;;7.07;;
24381;SDS011;12502;50.678;7.172;2022-07-21T12:50:23;9.77;;;7.47;;
24381;SDS011;12502;50.678;7.172;2022-07-21T12:55:25;12.23;;;9.05;;
24381;SDS011;12502;50.678;7.172;2022-07-21T13:00:27;11.60;;;8.80;;
24381;SDS011;12502;50.678;7.172;2022-07-21T13:05:29;13.02;;;9.05;;
24381;SDS011;12502;50.678;7.172;2022-07-21T13:10:31;11.07;;;9.15;;
24381;SDS011;12502;50.678;7.172;2022-07-21T13:15:32;11.32;;;8.30;;
24381;SDS011;12502;50.678;7.172;2022-07-21T13:20:34;9.95;;;9.05;;
24381;SDS011;12502;50.678;7.172;2022-07-21T13:25:36;13.40;;;9.07;;
24381;SDS011;12502;50.678;7.172;2022-07-21T13:30:38;10.68;;;8.80;;
24381;SDS011;12502;50.678;7.172;2022-07-21T13:35:43;12.93;;;10.15;;
24381;SDS011;12502;50.678;7.172;2022-07-21T13:40:45;12.27;;;10.40;;
24381;SDS011;12502;50.678;7.172;2022-07-21T13:46:07;13.07;;;9.70;;
24381;SDS011;12502;50.678;7.172;2022-07-21T13:51:09;11.80;;;10.13;;
24381;SDS011;12502;50.678;7.172;2022-07-21T13:56:12;12.27;;;10.70;;
24381;SDS011;12502;50.678;7.172;2022-07-21T14:01:14;13.55;;;11.30;;
24381;SDS011;12502;50.678;7.172;2022-07-21T14:06:17;15.80;;;12.02;;
24381;SDS011;12502;50.678;7.172;2022-07-21T14:11:19;18.70;;;12.80;;
24381;SDS011;12502;50.678;7.172;2022-07-21T14:16:23;15.48;;;11.98;;
24381;SDS011;12502;50.678;7.172;2022-07-21T14:21:25;14.98;;;13.35;;
24381;SDS011;12502;50.678;7.172;2022-07-21T14:26:27;15.77;;;13.52;;
24381;SDS011;12502;50.678;7.172;2022-07-21T14:31:29;14.55;;;13.05;;
24381;SDS011;12502;50.678;7.172;2022-07-21T14:36:31;18.75;;;15.23;;
24381;SDS011;12502;50.678;7.172;2022-07-21T14:41:33;16.30;;;14.05;;
24381;SDS011;12502;50.678;7.172;2022-07-21T14:46:35;18.15;;;13.77;;
24381;SDS011;12502;50.678;7.172;2022-07-21T14:51:37;15.60;;;13.25;;
24381;SDS011;12502;50.678;7.172;2022-07-21T14:56:39;18.13;;;13.98;;
24381;SDS011;12502;50.678;7.172;2022-07-21T15:02:01;18.02;;;12.07;;
24381;SDS011;12502;50.678;7.172;2022-07-21T15:07:11;10.55;;;8.63;;
24381;SDS011;12502;50.678;7.172;2022-07-21T15:12:13;8.73;;;7.40;;
24381;SDS011;12502;50.678;7.172;2022-07-21T15:17:15;9.90;;;7.78;;
24381;SDS011;12502;50.678;7.172;2022-07-21T15:22:18;11.55;;;9.15;;
24381;SDS011;12502;50.678;7.172;2022-07-21T15:27:20;11.50;;;9.93;;
24381;SDS011;12502;50.678;7.172;2022-07-21T15:32:22;12.18;;;10.95;;
24381;SDS011;12502;50.678;7.172;2022-07-21T15:37:24;11.07;;;8.20;;
24381;SDS011;12502;50.678;7.172;2022-07-21T15:42:25;12.27;;;8.48;;
24381;SDS011;12502;50.678;7.172;2022-07-21T15:47:29;10.17;;;8.03;;
24381;SDS011;12502;50.678;7.172;2022-07-21T15:52:31;8.75;;;7.85;;
24381;SDS011;12502;50.678;7.172;2022-07-21T15:57:33;9.38;;;7.63;;
24381;SDS011;12502;50.678;7.172;2022-07-21T16:02:39;11.70;;;9.15;;
24381;SDS011;12502;50.678;7.172;2022-07-21T16:07:43;9.50;;;8.00;;
24381;SDS011;12502;50.678;7.172;2022-07-21T16:12:46;10.40;;;8.03;;
24381;SDS011;12502;50.678;7.172;2022-07-21T16:17:48;9.40;;;7.63;;
24381;SDS011;12502;50.678;7.172;2022-07-21T16:22:53;8.88;;;7.63;;
24381;SDS011;12502;50.678;7.172;2022-07-21T16:32:58;9.32;;;6.45;;
24381;SDS011;12502;50.678;7.172;2022-07-21T16:38:00;7.63;;;6.85;;
24381;SDS011;12502;50.678;7.172;2022-07-21T16:43:02;8.10;;;6.18;;
24381;SDS011;12502;50.678;7.172;2022-07-21T16:48:04;12.30;;;6.82;;
24381;SDS011;12502;50.678;7.172;2022-07-21T16:53:12;8.68;;;6.70;;
24381;SDS011;12502;50.678;7.172;2022-07-21T16:58:14;8.10;;;6.75;;
24381;SDS011;12502;50.678;7.172;2022-07-21T17:03:15;10.40;;;7.20;;
24381;SDS011;12502;50.678;7.172;2022-07-21T17:08:17;11.50;;;7.47;;
24381;SDS011;12502;50.678;7.172;2022-07-21T17:13:19;9.75;;;7.50;;
24381;SDS011;12502;50.678;7.172;2022-07-21T17:18:21;9.50;;;7.72;;
24381;SDS011;12502;50.678;7.172;2022-07-21T17:23:23;8.77;;;7.43;;
24381;SDS011;12502;50.678;7.172;2022-07-21T17:28:25;12.38;;;7.80;;
24381;SDS011;12502;50.678;7.172;2022-07-21T17:33:27;8.07;;;7.32;;
24381;SDS011;12502;50.678;7.172;2022-07-21T17:38:29;11.25;;;8.15;;
24381;SDS011;12502;50.678;7.172;2022-07-21T17:43:30;8.68;;;7.75;;
24381;SDS011;12502;50.678;7.172;2022-07-21T17:48:32;10.00;;;7.65;;
24381;SDS011;12502;50.678;7.172;2022-07-21T17:53:34;12.43;;;8.05;;
24381;SDS011;12502;50.678;7.172;2022-07-21T17:58:44;13.55;;;7.97;;
24381;SDS011;12502;50.678;7.172;2022-07-21T18:03:49;9.77;;;8.07;;
24381;SDS011;12502;50.678;7.172;2022-07-21T18:08:53;14.82;;;9.15;;
24381;SDS011;12502;50.678;7.172;2022-07-21T18:13:54;10.93;;;8.10;;
24381;SDS011;12502;50.678;7.172;2022-07-21T18:18:57;11.07;;;8.02;;
24381;SDS011;12502;50.678;7.172;2022-07-21T18:23:59;10.82;;;8.00;;
24381;SDS011;12502;50.678;7.172;2022-07-21T18:29:00;10.02;;;7.80;;
24381;SDS011;12502;50.678;7.172;2022-07-21T18:34:02;10.23;;;7.50;;
24381;SDS011;12502;50.678;7.172;2022-07-21T18:39:04;8.80;;;7.35;;
24381;SDS011;12502;50.678;7.172;2022-07-21T18:44:07;9.90;;;8.02;;
24381;SDS011;12502;50.678;7.172;2022-07-21T18:49:09;12.00;;;7.90;;
24381;SDS011;12502;50.678;7.172;2022-07-21T18:54:10;11.70;;;7.88;;
24381;SDS011;12502;50.678;7.172;2022-07-21T18:59:13;10.60;;;8.52;;
24381;SDS011;12502;50.678;7.172;2022-07-21T19:04:15;12.52;;;8.27;;
24381;SDS011;12502;50.678;7.172;2022-07-21T19:09:17;11.63;;;8.30;;
24381;SDS011;12502;50.678;7.172;2022-07-21T19:14:19;14.57;;;8.73;;
24381;SDS011;12502;50.678;7.172;2022-07-21T19:19:20;14.18;;;8.63;;
24381;SDS011;12502;50.678;7.172;2022-07-21T19:24:22;12.40;;;8.65;;
24381;SDS011;12502;50.678;7.172;2022-07-21T19:29:24;12.35;;;8.80;;
24381;SDS011;12502;50.678;7.172;2022-07-21T19:34:26;13.65;;;8.75;;
24381;SDS011;12502;50.678;7.172;2022-07-21T19:39:32;12.82;;;8.98;;
24381;SDS011;12502;50.678;7.172;2022-07-21T19:44:34;14.23;;;9.15;;
24381;SDS011;12502;50.678;7.172;2022-07-21T19:49:35;10.80;;;8.60;;
24381;SDS011;12502;50.678;7.172;2022-07-21T19:54:39;13.07;;;9.13;;
24381;SDS011;12502;50.678;7.172;2022-07-21T19:59:41;11.65;;;8.68;;
24381;SDS011;12502;50.678;7.172;2022-07-21T20:04:43;17.23;;;10.73;;
24381;SDS011;12502;50.678;7.172;2022-07-21T20:09:45;16.23;;;9.82;;
24381;SDS011;12502;50.678;7.172;2022-07-21T20:14:46;16.02;;;9.43;;
24381;SDS011;12502;50.678;7.172;2022-07-21T20:19:48;15.93;;;9.65;;
24381;SDS011;12502;50.678;7.172;2022-07-21T20:24:50;14.32;;;9.82;;
24381;SDS011;12502;50.678;7.172;2022-07-21T20:29:56;16.20;;;8.95;;
24381;SDS011;12502;50.678;7.172;2022-07-21T20:34:58;22.25;;;10.38;;
24381;SDS011;12502;50.678;7.172;2022-07-21T20:40:00;13.90;;;9.88;;
24381;SDS011;12502;50.678;7.172;2022-07-21T20:45:22;15.93;;;9.95;;
24381;SDS011;12502;50.678;7.172;2022-07-21T20:50:24;17.45;;;10.63;;
24381;SDS011;12502;50.678;7.172;2022-07-21T20:55:26;16.88;;;9.48;;
24381;SDS011;12502;50.678;7.172;2022-07-21T21:00:47;18.50;;;10.98;;
24381;SDS011;12502;50.678;7.172;2022-07-21T21:05:49;19.52;;;10.02;;
24381;SDS011;12502;50.678;7.172;2022-07-21T21:10:51;18.50;;;10.57;;
24381;SDS011;12502;50.678;7.172;2022-07-21T21:15:53;16.30;;;10.05;;
24381;SDS011;12502;50.678;7.172;2022-07-21T21:20:55;18.52;;;11.13;;
24381;SDS011;12502;50.678;7.172;2022-07-21T21:25:58;19.45;;;11.02;;
24381;SDS011;12502;50.678;7.172;2022-07-21T21:31:00;16.13;;;10.82;;
24381;SDS011;12502;50.678;7.172;2022-07-21T21:36:02;14.85;;;10.50;;
24381;SDS011;12502;50.678;7.172;2022-07-21T21:41:04;16.55;;;9.82;;
24381;SDS011;12502;50.678;7.172;2022-07-21T21:46:06;15.60;;;10.18;;
24381;SDS011;12502;50.678;7.172;2022-07-21T21:51:10;14.70;;;9.25;;
24381;SDS011;12502;50.678;7.172;2022-07-21T21:56:11;16.35;;;10.30;;
24381;SDS011;12502;50.678;7.172;2022-07-21T22:01:13;16.10;;;9.55;;
24381;SDS011;12502;50.678;7.172;2022-07-21T22:06:15;20.75;;;9.20;;
24381;SDS011;12502;50.678;7.172;2022-07-21T22:11:17;11.68;;;8.27;;
24381;SDS011;12502;50.678;7.172;2022-07-21T22:16:19;13.45;;;8.80;;
24381;SDS011;12502;50.678;7.172;2022-07-21T22:21:21;14.60;;;9.02;;
24381;SDS011;12502;50.678;7.172;2022-07-21T22:26:29;15.55;;;9.30;;
24381;SDS011;12502;50.678;7.172;2022-07-21T22:31:32;14.63;;;9.32;;
24381;SDS011;12502;50.678;7.172;2022-07-21T22:36:39;13.38;;;8.43;;
24381;SDS011;12502;50.678;7.172;2022-07-21T22:41:41;13.07;;;8.82;;
24381;SDS011;12502;50.678;7.172;2022-07-21T22:46:43;16.90;;;9.10;;
24381;SDS011;12502;50.678;7.172;2022-07-21T22:51:45;13.02;;;7.93;;
24381;SDS011;12502;50.678;7.172;2022-07-21T22:56:47;10.45;;;7.93;;
24381;SDS011;12502;50.678;7.172;2022-07-21T23:01:48;13.02;;;7.28;;
24381;SDS011;12502;50.678;7.172;2022-07-21T23:06:50;12.23;;;7.93;;
24381;SDS011;12502;50.678;7.172;2022-07-21T23:11:52;12.00;;;6.88;;
24381;SDS011;12502;50.678;7.172;2022-07-21T23:16:54;14.93;;;8.00;;
24381;SDS011;12502;50.678;7.172;2022-07-21T23:21:56;9.85;;;6.95;;
24381;SDS011;12502;50.678;7.172;2022-07-21T23:26:57;15.48;;;7.20;;
24381;SDS011;12502;50.678;7.172;2022-07-21T23:31:59;14.27;;;8.68;;
24381;SDS011;12502;50.678;7.172;2022-07-21T23:37:01;9.57;;;7.30;;
24381;SDS011;12502;50.678;7.172;2022-07-21T23:42:03;11.15;;;8.07;;
24381;SDS011;12502;50.678;7.172;2022-07-21T23:47:04;11.60;;;7.80;;
24381;SDS011;12502;50.678;7.172;2022-07-21T23:52:06;10.05;;;7.82;;
24381;SDS011;12502;50.678;7.172;2022-07-21T23:57:08;13.57;;;7.25;;
